sensor_id;sensor_type;location;lat;lon;timestamp;P1;durP1;ratioP1;P2;durP2;ratioP2
17201;SDS011;8717;53.588;10.176;2022-08-30T00:00:32;2.83;;;1.00;;
17201;SDS011;8717;53.588;10.176;2022-08-30T00:03:18;2.33;;;1.10;;
17201;SDS011;8717;53.588;10.176;2022-08-30T00:05:46;3.10;;;1.17;;
17201;SDS011;8717;53.588;10.176;2022-08-30T00:08:13;2.10;;;1.10;;
17201;SDS011;8717;53.588;10.176;2022-08-30T00:10:40;1.97;;;1.20;;
17201;SDS011;8717;53.588;10.176;2022-08-30T00:13:07;5.37;;;1.20;;
17201;SDS011;8717;53.588;10.176;2022-08-30T00:15:36;2.13;;;1.10;;
17201;SDS011;8717;53.588;10.176;2022-08-30T00:18:03;3.80;;;1.10;;
17201;SDS011;8717;53.588;10.176;2022-08-30T00:20:32;2.27;;;1.20;;
17201;SDS011;8717;53.588;10.176;2022-08-30T00:23:00;2.07;;;0.93;;
17201;SDS011;8717;53.588;10.176;2022-08-30T00:25:27;1.97;;;1.03;;
17201;SDS011;8717;53.588;10.176;2022-08-30T00:27:54;2.03;;;1.20;;
17201;SDS011;8717;53.588;10.176;2022-08-30T00:30:21;3.17;;;1.20;;
17201;SDS011;8717;53.588;10.176;2022-08-30T00:32:48;2.03;;;1.10;;
17201;SDS011;8717;53.588;10.176;2022-08-30T00:35:15;2.87;;;1.13;;
17201;SDS011;8717;53.588;10.176;2022-08-30T00:37:46;2.90;;;1.13;;
17201;SDS011;8717;53.588;10.176;2022-08-30T00:40:15;4.10;;;1.40;;
17201;SDS011;8717;53.588;10.176;2022-08-30T00:42:44;3.40;;;1.43;;
17201;SDS011;8717;53.588;10.176;2022-08-30T00:45:13;3.13;;;1.30;;
17201;SDS011;8717;53.588;10.176;2022-08-30T00:47:42;4.33;;;1.33;;
17201;SDS011;8717;53.588;10.176;2022-08-30T00:50:09;1.63;;;1.07;;
17201;SDS011;8717;53.588;10.176;2022-08-30T00:52:38;1.43;;;1.20;;
17201;SDS011;8717;53.588;10.176;2022-08-30T00:55:09;1.73;;;0.90;;
17201;SDS011;8717;53.588;10.176;2022-08-30T00:57:38;1.97;;;1.10;;
17201;SDS011;8717;53.588;10.176;2022-08-30T01:00:06;3.00;;;1.13;;
17201;SDS011;8717;53.588;10.176;2022-08-30T01:02:33;2.37;;;1.10;;
17201;SDS011;8717;53.588;10.176;2022-08-30T01:05:01;2.30;;;1.10;;
17201;SDS011;8717;53.588;10.176;2022-08-30T01:07:29;1.73;;;1.03;;
17201;SDS011;8717;53.588;10.176;2022-08-30T01:09:56;3.23;;;1.20;;
17201;SDS011;8717;53.588;10.176;2022-08-30T01:12:26;1.97;;;1.10;;
17201;SDS011;8717;53.588;10.176;2022-08-30T01:14:54;4.27;;;1.10;;
17201;SDS011;8717;53.588;10.176;2022-08-30T01:17:21;2.50;;;1.10;;
17201;SDS011;8717;53.588;10.176;2022-08-30T01:19:48;4.03;;;1.37;;
17201;SDS011;8717;53.588;10.176;2022-08-30T01:22:20;2.00;;;1.13;;
17201;SDS011;8717;53.588;10.176;2022-08-30T01:24:55;3.57;;;1.20;;
17201;SDS011;8717;53.588;10.176;2022-08-30T01:27:24;3.60;;;1.20;;
17201;SDS011;8717;53.588;10.176;2022-08-30T01:29:53;3.50;;;1.00;;
17201;SDS011;8717;53.588;10.176;2022-08-30T01:32:22;3.93;;;1.30;;
17201;SDS011;8717;53.588;10.176;2022-08-30T01:34:53;3.47;;;1.07;;
17201;SDS011;8717;53.588;10.176;2022-08-30T01:37:21;1.67;;;0.87;;
17201;SDS011;8717;53.588;10.176;2022-08-30T01:39:50;2.40;;;1.00;;
17201;SDS011;8717;53.588;10.176;2022-08-30T01:42:18;1.30;;;0.97;;
17201;SDS011;8717;53.588;10.176;2022-08-30T01:44:45;3.40;;;1.10;;
17201;SDS011;8717;53.588;10.176;2022-08-30T01:47:13;1.97;;;1.20;;
17201;SDS011;8717;53.588;10.176;2022-08-30T01:49:42;1.13;;;1.00;;
17201;SDS011;8717;53.588;10.176;2022-08-30T01:52:09;3.03;;;1.07;;
17201;SDS011;8717;53.588;10.176;2022-08-30T01:54:37;3.10;;;1.33;;
17201;SDS011;8717;53.588;10.176;2022-08-30T01:57:05;1.80;;;0.97;;
17201;SDS011;8717;53.588;10.176;2022-08-30T01:59:35;2.03;;;1.00;;
17201;SDS011;8717;53.588;10.176;2022-08-30T02:02:03;1.63;;;1.00;;
17201;SDS011;8717;53.588;10.176;2022-08-30T02:04:30;1.50;;;1.00;;
17201;SDS011;8717;53.588;10.176;2022-08-30T02:06:58;2.47;;;1.30;;
17201;SDS011;8717;53.588;10.176;2022-08-30T02:09:25;2.97;;;1.10;;
17201;SDS011;8717;53.588;10.176;2022-08-30T02:11:52;2.63;;;1.00;;
17201;SDS011;8717;53.588;10.176;2022-08-30T02:14:18;2.17;;;1.30;;
17201;SDS011;8717;53.588;10.176;2022-08-30T02:16:46;2.53;;;0.93;;
17201;SDS011;8717;53.588;10.176;2022-08-30T02:19:13;3.23;;;1.03;;
17201;SDS011;8717;53.588;10.176;2022-08-30T02:21:40;3.83;;;1.57;;
17201;SDS011;8717;53.588;10.176;2022-08-30T02:24:07;2.67;;;1.10;;
17201;SDS011;8717;53.588;10.176;2022-08-30T02:26:33;3.50;;;1.10;;
17201;SDS011;8717;53.588;10.176;2022-08-30T02:29:01;2.57;;;1.00;;
17201;SDS011;8717;53.588;10.176;2022-08-30T02:31:29;1.93;;;1.00;;
17201;SDS011;8717;53.588;10.176;2022-08-30T02:33:57;2.20;;;1.00;;
17201;SDS011;8717;53.588;10.176;2022-08-30T02:36:24;3.50;;;1.10;;
17201;SDS011;8717;53.588;10.176;2022-08-30T02:38:51;1.77;;;1.00;;
17201;SDS011;8717;53.588;10.176;2022-08-30T02:41:18;2.23;;;0.90;;
17201;SDS011;8717;53.588;10.176;2022-08-30T02:43:47;2.10;;;1.10;;
17201;SDS011;8717;53.588;10.176;2022-08-30T02:46:14;3.50;;;1.40;;
17201;SDS011;8717;53.588;10.176;2022-08-30T02:48:42;1.93;;;1.13;;
17201;SDS011;8717;53.588;10.176;2022-08-30T02:51:11;1.70;;;0.93;;
17201;SDS011;8717;53.588;10.176;2022-08-30T02:53:38;2.23;;;1.07;;
17201;SDS011;8717;53.588;10.176;2022-08-30T02:56:06;2.40;;;1.23;;
17201;SDS011;8717;53.588;10.176;2022-08-30T02:58:33;1.60;;;1.10;;
17201;SDS011;8717;53.588;10.176;2022-08-30T03:01:00;3.60;;;1.20;;
17201;SDS011;8717;53.588;10.176;2022-08-30T03:03:27;1.60;;;0.90;;
17201;SDS011;8717;53.588;10.176;2022-08-30T03:05:54;4.03;;;1.10;;
17201;SDS011;8717;53.588;10.176;2022-08-30T03:08:22;3.03;;;1.10;;
17201;SDS011;8717;53.588;10.176;2022-08-30T03:10:48;1.30;;;0.80;;
17201;SDS011;8717;53.588;10.176;2022-08-30T03:13:16;2.07;;;1.03;;
17201;SDS011;8717;53.588;10.176;2022-08-30T03:15:42;1.30;;;1.00;;
17201;SDS011;8717;53.588;10.176;2022-08-30T03:18:09;2.90;;;1.07;;
17201;SDS011;8717;53.588;10.176;2022-08-30T03:20:36;1.70;;;1.10;;
17201;SDS011;8717;53.588;10.176;2022-08-30T03:23:03;2.30;;;1.00;;
17201;SDS011;8717;53.588;10.176;2022-08-30T03:25:31;2.90;;;1.13;;
17201;SDS011;8717;53.588;10.176;2022-08-30T03:27:58;1.83;;;1.00;;
17201;SDS011;8717;53.588;10.176;2022-08-30T03:30:25;1.30;;;1.10;;
17201;SDS011;8717;53.588;10.176;2022-08-30T03:32:52;4.10;;;1.27;;
17201;SDS011;8717;53.588;10.176;2022-08-30T03:35:18;2.03;;;1.00;;
17201;SDS011;8717;53.588;10.176;2022-08-30T03:37:45;2.60;;;1.20;;
17201;SDS011;8717;53.588;10.176;2022-08-30T03:40:14;5.40;;;1.10;;
17201;SDS011;8717;53.588;10.176;2022-08-30T03:42:43;1.83;;;1.00;;
17201;SDS011;8717;53.588;10.176;2022-08-30T03:45:11;3.57;;;1.13;;
17201;SDS011;8717;53.588;10.176;2022-08-30T03:47:39;3.17;;;0.97;;
17201;SDS011;8717;53.588;10.176;2022-08-30T03:50:06;6.07;;;1.30;;
17201;SDS011;8717;53.588;10.176;2022-08-30T03:52:33;2.00;;;1.37;;
17201;SDS011;8717;53.588;10.176;2022-08-30T03:55:00;2.70;;;1.23;;
17201;SDS011;8717;53.588;10.176;2022-08-30T03:57:26;2.50;;;1.10;;
17201;SDS011;8717;53.588;10.176;2022-08-30T03:59:55;2.33;;;1.27;;
17201;SDS011;8717;53.588;10.176;2022-08-30T04:02:21;2.67;;;1.20;;
17201;SDS011;8717;53.588;10.176;2022-08-30T04:04:48;1.40;;;1.10;;
17201;SDS011;8717;53.588;10.176;2022-08-30T04:07:15;2.60;;;1.10;;
17201;SDS011;8717;53.588;10.176;2022-08-30T04:09:43;2.63;;;1.10;;
17201;SDS011;8717;53.588;10.176;2022-08-30T04:12:09;2.53;;;1.50;;
17201;SDS011;8717;53.588;10.176;2022-08-30T04:14:36;4.00;;;1.20;;
17201;SDS011;8717;53.588;10.176;2022-08-30T04:17:04;4.33;;;1.40;;
17201;SDS011;8717;53.588;10.176;2022-08-30T04:19:31;2.73;;;1.10;;
17201;SDS011;8717;53.588;10.176;2022-08-30T04:21:57;2.93;;;1.00;;
17201;SDS011;8717;53.588;10.176;2022-08-30T04:24:27;2.07;;;1.00;;
17201;SDS011;8717;53.588;10.176;2022-08-30T04:26:54;2.10;;;0.90;;
17201;SDS011;8717;53.588;10.176;2022-08-30T04:29:20;2.10;;;1.30;;
17201;SDS011;8717;53.588;10.176;2022-08-30T04:31:47;2.20;;;1.30;;
17201;SDS011;8717;53.588;10.176;2022-08-30T04:34:15;1.90;;;1.10;;
17201;SDS011;8717;53.588;10.176;2022-08-30T04:36:42;5.67;;;1.27;;
17201;SDS011;8717;53.588;10.176;2022-08-30T04:39:09;2.73;;;1.43;;
17201;SDS011;8717;53.588;10.176;2022-08-30T04:41:36;2.83;;;1.60;;
17201;SDS011;8717;53.588;10.176;2022-08-30T04:44:04;4.77;;;1.13;;
17201;SDS011;8717;53.588;10.176;2022-08-30T04:46:32;2.37;;;1.10;;
17201;SDS011;8717;53.588;10.176;2022-08-30T04:48:59;1.87;;;1.10;;
17201;SDS011;8717;53.588;10.176;2022-08-30T04:51:27;2.90;;;1.10;;
17201;SDS011;8717;53.588;10.176;2022-08-30T04:53:54;3.87;;;1.30;;
17201;SDS011;8717;53.588;10.176;2022-08-30T04:56:21;2.63;;;1.20;;
17201;SDS011;8717;53.588;10.176;2022-08-30T04:58:50;1.67;;;1.30;;
17201;SDS011;8717;53.588;10.176;2022-08-30T05:01:19;2.50;;;1.33;;
17201;SDS011;8717;53.588;10.176;2022-08-30T05:03:47;2.43;;;1.13;;
17201;SDS011;8717;53.588;10.176;2022-08-30T05:06:15;3.57;;;1.57;;
17201;SDS011;8717;53.588;10.176;2022-08-30T05:08:43;3.60;;;1.20;;
17201;SDS011;8717;53.588;10.176;2022-08-30T05:11:10;2.07;;;1.23;;
17201;SDS011;8717;53.588;10.176;2022-08-30T05:13:37;1.90;;;1.20;;
17201;SDS011;8717;53.588;10.176;2022-08-30T05:16:05;2.40;;;1.33;;
17201;SDS011;8717;53.588;10.176;2022-08-30T05:18:32;3.83;;;1.50;;
17201;SDS011;8717;53.588;10.176;2022-08-30T05:21:03;3.00;;;1.40;;
17201;SDS011;8717;53.588;10.176;2022-08-30T05:23:32;2.63;;;1.30;;
17201;SDS011;8717;53.588;10.176;2022-08-30T05:26:04;2.23;;;1.00;;
17201;SDS011;8717;53.588;10.176;2022-08-30T05:28:31;2.33;;;1.30;;
17201;SDS011;8717;53.588;10.176;2022-08-30T05:30:58;2.30;;;1.20;;
17201;SDS011;8717;53.588;10.176;2022-08-30T05:33:25;1.53;;;1.20;;
17201;SDS011;8717;53.588;10.176;2022-08-30T05:35:55;1.70;;;1.10;;
17201;SDS011;8717;53.588;10.176;2022-08-30T05:38:22;3.13;;;1.37;;
17201;SDS011;8717;53.588;10.176;2022-08-30T05:40:49;1.50;;;1.10;;
17201;SDS011;8717;53.588;10.176;2022-08-30T05:43:17;2.00;;;1.20;;
17201;SDS011;8717;53.588;10.176;2022-08-30T05:45:43;1.50;;;1.07;;
17201;SDS011;8717;53.588;10.176;2022-08-30T05:48:10;5.47;;;1.63;;
17201;SDS011;8717;53.588;10.176;2022-08-30T05:50:37;2.53;;;1.50;;
17201;SDS011;8717;53.588;10.176;2022-08-30T05:53:03;1.97;;;1.10;;
17201;SDS011;8717;53.588;10.176;2022-08-30T05:55:30;1.43;;;1.10;;
17201;SDS011;8717;53.588;10.176;2022-08-30T05:57:57;2.83;;;1.17;;
17201;SDS011;8717;53.588;10.176;2022-08-30T06:00:26;2.40;;;1.20;;
17201;SDS011;8717;53.588;10.176;2022-08-30T06:02:54;3.47;;;1.60;;
17201;SDS011;8717;53.588;10.176;2022-08-30T06:05:22;4.27;;;1.70;;
17201;SDS011;8717;53.588;10.176;2022-08-30T06:07:49;3.43;;;1.40;;
17201;SDS011;8717;53.588;10.176;2022-08-30T06:10:19;4.93;;;1.20;;
17201;SDS011;8717;53.588;10.176;2022-08-30T06:12:45;4.03;;;1.33;;
17201;SDS011;8717;53.588;10.176;2022-08-30T06:15:12;3.13;;;1.30;;
17201;SDS011;8717;53.588;10.176;2022-08-30T06:17:40;2.07;;;1.23;;
17201;SDS011;8717;53.588;10.176;2022-08-30T06:20:07;4.10;;;1.40;;
17201;SDS011;8717;53.588;10.176;2022-08-30T06:22:35;3.47;;;1.33;;
17201;SDS011;8717;53.588;10.176;2022-08-30T06:25:03;3.00;;;1.33;;
17201;SDS011;8717;53.588;10.176;2022-08-30T06:27:30;2.10;;;1.13;;
17201;SDS011;8717;53.588;10.176;2022-08-30T06:29:57;2.33;;;1.00;;
17201;SDS011;8717;53.588;10.176;2022-08-30T06:32:23;2.77;;;1.10;;
17201;SDS011;8717;53.588;10.176;2022-08-30T06:34:51;1.60;;;1.23;;
17201;SDS011;8717;53.588;10.176;2022-08-30T06:37:18;4.10;;;1.40;;
17201;SDS011;8717;53.588;10.176;2022-08-30T06:39:45;3.67;;;1.07;;
17201;SDS011;8717;53.588;10.176;2022-08-30T06:42:11;1.63;;;1.20;;
17201;SDS011;8717;53.588;10.176;2022-08-30T06:44:38;2.00;;;1.30;;
17201;SDS011;8717;53.588;10.176;2022-08-30T06:47:05;3.43;;;1.07;;
17201;SDS011;8717;53.588;10.176;2022-08-30T06:49:32;4.80;;;1.50;;
17201;SDS011;8717;53.588;10.176;2022-08-30T06:52:00;1.70;;;1.10;;
17201;SDS011;8717;53.588;10.176;2022-08-30T06:54:27;1.40;;;1.20;;
17201;SDS011;8717;53.588;10.176;2022-08-30T06:56:53;1.70;;;1.30;;
17201;SDS011;8717;53.588;10.176;2022-08-30T06:59:20;3.67;;;1.17;;
17201;SDS011;8717;53.588;10.176;2022-08-30T07:01:47;2.17;;;1.00;;
17201;SDS011;8717;53.588;10.176;2022-08-30T07:04:13;5.80;;;1.50;;
17201;SDS011;8717;53.588;10.176;2022-08-30T07:06:41;3.17;;;1.20;;
17201;SDS011;8717;53.588;10.176;2022-08-30T07:09:09;2.50;;;1.10;;
17201;SDS011;8717;53.588;10.176;2022-08-30T07:11:36;3.50;;;1.10;;
17201;SDS011;8717;53.588;10.176;2022-08-30T07:14:04;2.87;;;1.17;;
17201;SDS011;8717;53.588;10.176;2022-08-30T07:16:31;2.70;;;1.37;;
17201;SDS011;8717;53.588;10.176;2022-08-30T07:18:59;1.83;;;1.00;;
17201;SDS011;8717;53.588;10.176;2022-08-30T07:21:26;2.10;;;1.30;;
17201;SDS011;8717;53.588;10.176;2022-08-30T07:23:55;1.47;;;1.20;;
17201;SDS011;8717;53.588;10.176;2022-08-30T07:26:25;2.33;;;1.10;;
17201;SDS011;8717;53.588;10.176;2022-08-30T07:28:54;2.03;;;1.30;;
17201;SDS011;8717;53.588;10.176;2022-08-30T07:31:21;2.03;;;1.20;;
17201;SDS011;8717;53.588;10.176;2022-08-30T07:33:48;4.30;;;1.30;;
17201;SDS011;8717;53.588;10.176;2022-08-30T07:36:15;2.30;;;1.40;;
17201;SDS011;8717;53.588;10.176;2022-08-30T07:38:46;2.87;;;1.00;;
17201;SDS011;8717;53.588;10.176;2022-08-30T07:41:17;2.87;;;1.47;;
17201;SDS011;8717;53.588;10.176;2022-08-30T07:43:46;1.50;;;1.10;;
17201;SDS011;8717;53.588;10.176;2022-08-30T07:46:15;2.90;;;1.30;;
17201;SDS011;8717;53.588;10.176;2022-08-30T07:48:42;1.83;;;1.10;;
17201;SDS011;8717;53.588;10.176;2022-08-30T07:51:10;3.43;;;1.40;;
17201;SDS011;8717;53.588;10.176;2022-08-30T07:53:38;2.60;;;1.30;;
17201;SDS011;8717;53.588;10.176;2022-08-30T07:56:05;1.70;;;0.90;;
17201;SDS011;8717;53.588;10.176;2022-08-30T07:58:32;1.43;;;1.00;;
17201;SDS011;8717;53.588;10.176;2022-08-30T08:01:07;1.80;;;1.10;;
17201;SDS011;8717;53.588;10.176;2022-08-30T08:03:35;2.27;;;1.03;;
17201;SDS011;8717;53.588;10.176;2022-08-30T08:06:04;2.00;;;0.90;;
17201;SDS011;8717;53.588;10.176;2022-08-30T08:08:31;1.30;;;0.83;;
17201;SDS011;8717;53.588;10.176;2022-08-30T08:11:04;1.37;;;1.00;;
17201;SDS011;8717;53.588;10.176;2022-08-30T08:13:32;1.07;;;0.83;;
17201;SDS011;8717;53.588;10.176;2022-08-30T08:15:58;2.20;;;0.90;;
17201;SDS011;8717;53.588;10.176;2022-08-30T08:18:26;1.40;;;0.80;;
17201;SDS011;8717;53.588;10.176;2022-08-30T08:20:53;2.90;;;0.83;;
17201;SDS011;8717;53.588;10.176;2022-08-30T08:23:23;1.30;;;0.80;;
17201;SDS011;8717;53.588;10.176;2022-08-30T08:25:49;2.70;;;1.00;;
17201;SDS011;8717;53.588;10.176;2022-08-30T08:28:16;1.13;;;0.77;;
17201;SDS011;8717;53.588;10.176;2022-08-30T08:30:43;1.95;;;0.70;;
17201;SDS011;8717;53.588;10.176;2022-08-30T08:33:10;1.42;;;0.80;;
17201;SDS011;8717;53.588;10.176;2022-08-30T08:35:39;1.10;;;0.70;;
17201;SDS011;8717;53.588;10.176;2022-08-30T08:38:06;2.38;;;1.08;;
17201;SDS011;8717;53.588;10.176;2022-08-30T08:40:38;1.55;;;0.80;;
17201;SDS011;8717;53.588;10.176;2022-08-30T08:43:14;1.50;;;0.77;;
17201;SDS011;8717;53.588;10.176;2022-08-30T08:45:45;1.23;;;0.70;;
17201;SDS011;8717;53.588;10.176;2022-08-30T08:48:25;1.30;;;0.80;;
17201;SDS011;8717;53.588;10.176;2022-08-30T08:50:56;1.25;;;0.73;;
17201;SDS011;8717;53.588;10.176;2022-08-30T08:53:42;2.45;;;1.00;;
17201;SDS011;8717;53.588;10.176;2022-08-30T08:56:13;1.40;;;0.82;;
17201;SDS011;8717;53.588;10.176;2022-08-30T08:58:43;1.38;;;0.68;;
17201;SDS011;8717;53.588;10.176;2022-08-30T09:01:12;2.30;;;0.82;;
17201;SDS011;8717;53.588;10.176;2022-08-30T09:03:40;2.45;;;1.10;;
17201;SDS011;8717;53.588;10.176;2022-08-30T09:06:21;0.95;;;0.80;;
17201;SDS011;8717;53.588;10.176;2022-08-30T09:08:52;2.08;;;0.77;;
17201;SDS011;8717;53.588;10.176;2022-08-30T09:11:20;0.90;;;0.65;;
17201;SDS011;8717;53.588;10.176;2022-08-30T09:13:48;1.50;;;0.80;;
17201;SDS011;8717;53.588;10.176;2022-08-30T09:22:11;2.63;;;1.00;;
17201;SDS011;8717;53.588;10.176;2022-08-30T09:24:42;1.98;;;0.73;;
17201;SDS011;8717;53.588;10.176;2022-08-30T09:27:21;3.53;;;1.15;;
17201;SDS011;8717;53.588;10.176;2022-08-30T09:29:51;2.13;;;0.60;;
17201;SDS011;8717;53.588;10.176;2022-08-30T09:32:31;2.65;;;0.90;;
17201;SDS011;8717;53.588;10.176;2022-08-30T09:35:02;4.20;;;1.02;;
17201;SDS011;8717;53.588;10.176;2022-08-30T09:37:36;2.75;;;0.82;;
17201;SDS011;8717;53.588;10.176;2022-08-30T09:40:11;1.33;;;0.93;;
17201;SDS011;8717;53.588;10.176;2022-08-30T09:42:40;0.90;;;0.70;;
17201;SDS011;8717;53.588;10.176;2022-08-30T09:45:20;1.38;;;0.82;;
17201;SDS011;8717;53.588;10.176;2022-08-30T09:47:56;1.67;;;0.75;;
17201;SDS011;8717;53.588;10.176;2022-08-30T09:50:24;2.25;;;0.80;;
17201;SDS011;8717;53.588;10.176;2022-08-30T09:53:00;1.70;;;0.98;;
17201;SDS011;8717;53.588;10.176;2022-08-30T09:58:24;1.02;;;0.60;;
17201;SDS011;8717;53.588;10.176;2022-08-30T10:01:03;1.10;;;0.80;;
17201;SDS011;8717;53.588;10.176;2022-08-30T10:03:37;1.10;;;0.80;;
17201;SDS011;8717;53.588;10.176;2022-08-30T10:06:09;0.90;;;0.65;;
17201;SDS011;8717;53.588;10.176;2022-08-30T10:08:50;0.80;;;0.60;;
17201;SDS011;8717;53.588;10.176;2022-08-30T10:11:26;3.08;;;0.93;;
17201;SDS011;8717;53.588;10.176;2022-08-30T10:14:00;2.35;;;0.98;;
17201;SDS011;8717;53.588;10.176;2022-08-30T10:16:43;1.13;;;1.00;;
17201;SDS011;8717;53.588;10.176;2022-08-30T10:19:17;1.25;;;0.85;;
17201;SDS011;8717;53.588;10.176;2022-08-30T10:21:54;1.13;;;0.90;;
17201;SDS011;8717;53.588;10.176;2022-08-30T10:24:27;1.52;;;0.90;;
17201;SDS011;8717;53.588;10.176;2022-08-30T10:26:59;1.00;;;0.90;;
17201;SDS011;8717;53.588;10.176;2022-08-30T10:29:31;3.15;;;0.88;;
17201;SDS011;8717;53.588;10.176;2022-08-30T10:32:02;1.20;;;0.85;;
17201;SDS011;8717;53.588;10.176;2022-08-30T10:34:36;2.15;;;0.70;;
17201;SDS011;8717;53.588;10.176;2022-08-30T10:37:07;1.27;;;0.77;;
17201;SDS011;8717;53.588;10.176;2022-08-30T10:39:39;2.05;;;1.10;;
17201;SDS011;8717;53.588;10.176;2022-08-30T10:42:11;1.20;;;0.80;;
17201;SDS011;8717;53.588;10.176;2022-08-30T10:44:45;2.13;;;1.10;;
17201;SDS011;8717;53.588;10.176;2022-08-30T10:47:20;1.65;;;1.00;;
17201;SDS011;8717;53.588;10.176;2022-08-30T10:49:56;0.80;;;0.73;;
17201;SDS011;8717;53.588;10.176;2022-08-30T10:52:30;1.33;;;0.88;;
17201;SDS011;8717;53.588;10.176;2022-08-30T10:55:04;2.35;;;0.98;;
17201;SDS011;8717;53.588;10.176;2022-08-30T10:57:33;2.53;;;0.88;;
17201;SDS011;8717;53.588;10.176;2022-08-30T11:00:04;1.10;;;0.90;;
17201;SDS011;8717;53.588;10.176;2022-08-30T11:02:52;1.85;;;0.82;;
17201;SDS011;8717;53.588;10.176;2022-08-30T11:05:53;2.03;;;1.20;;
17201;SDS011;8717;53.588;10.176;2022-08-30T11:08:37;2.15;;;1.10;;
17201;SDS011;8717;53.588;10.176;2022-08-30T11:11:16;2.13;;;0.90;;
17201;SDS011;8717;53.588;10.176;2022-08-30T11:13:54;1.13;;;0.75;;
17201;SDS011;8717;53.588;10.176;2022-08-30T11:16:32;3.35;;;1.08;;
17201;SDS011;8717;53.588;10.176;2022-08-30T11:19:01;2.28;;;0.93;;
17201;SDS011;8717;53.588;10.176;2022-08-30T11:21:30;1.20;;;0.80;;
17201;SDS011;8717;53.588;10.176;2022-08-30T11:24:03;3.70;;;1.17;;
17201;SDS011;8717;53.588;10.176;2022-08-30T11:26:55;1.58;;;0.90;;
17201;SDS011;8717;53.588;10.176;2022-08-30T11:32:18;2.55;;;0.80;;
17201;SDS011;8717;53.588;10.176;2022-08-30T11:34:54;1.88;;;0.82;;
17201;SDS011;8717;53.588;10.176;2022-08-30T11:37:30;2.25;;;0.95;;
17201;SDS011;8717;53.588;10.176;2022-08-30T11:40:01;1.52;;;0.70;;
17201;SDS011;8717;53.588;10.176;2022-08-30T11:42:33;1.65;;;0.70;;
17201;SDS011;8717;53.588;10.176;2022-08-30T11:51:12;1.52;;;0.80;;
17201;SDS011;8717;53.588;10.176;2022-08-30T11:53:53;3.60;;;1.00;;
17201;SDS011;8717;53.588;10.176;2022-08-30T11:56:27;1.05;;;0.82;;
17201;SDS011;8717;53.588;10.176;2022-08-30T11:59:00;1.55;;;0.73;;
17201;SDS011;8717;53.588;10.176;2022-08-30T12:01:33;1.15;;;0.80;;
17201;SDS011;8717;53.588;10.176;2022-08-30T12:04:03;1.70;;;0.60;;
17201;SDS011;8717;53.588;10.176;2022-08-30T12:06:45;2.03;;;0.90;;
17201;SDS011;8717;53.588;10.176;2022-08-30T12:18:27;2.13;;;0.90;;
17201;SDS011;8717;53.588;10.176;2022-08-30T12:21:00;1.50;;;0.75;;
17201;SDS011;8717;53.588;10.176;2022-08-30T12:23:34;1.50;;;0.85;;
17201;SDS011;8717;53.588;10.176;2022-08-30T12:26:10;2.30;;;0.73;;
17201;SDS011;8717;53.588;10.176;2022-08-30T12:28:40;0.80;;;0.77;;
17201;SDS011;8717;53.588;10.176;2022-08-30T12:31:09;2.45;;;0.80;;
17201;SDS011;8717;53.588;10.176;2022-08-30T12:33:42;1.65;;;0.80;;
17201;SDS011;8717;53.588;10.176;2022-08-30T12:36:11;1.65;;;0.70;;
17201;SDS011;8717;53.588;10.176;2022-08-30T12:38:39;4.15;;;0.82;;
17201;SDS011;8717;53.588;10.176;2022-08-30T12:41:06;1.58;;;0.88;;
17201;SDS011;8717;53.588;10.176;2022-08-30T12:43:34;1.17;;;0.80;;
17201;SDS011;8717;53.588;10.176;2022-08-30T12:46:04;3.53;;;0.90;;
17201;SDS011;8717;53.588;10.176;2022-08-30T12:48:34;1.40;;;0.70;;
17201;SDS011;8717;53.588;10.176;2022-08-30T12:51:06;1.77;;;0.80;;
17201;SDS011;8717;53.588;10.176;2022-08-30T12:53:35;2.67;;;0.70;;
17201;SDS011;8717;53.588;10.176;2022-08-30T12:56:06;1.25;;;0.60;;
17201;SDS011;8717;53.588;10.176;2022-08-30T12:58:40;1.13;;;0.80;;
17201;SDS011;8717;53.588;10.176;2022-08-30T13:01:23;4.65;;;0.88;;
17201;SDS011;8717;53.588;10.176;2022-08-30T13:03:53;1.23;;;0.70;;
17201;SDS011;8717;53.588;10.176;2022-08-30T13:06:46;3.30;;;0.80;;
17201;SDS011;8717;53.588;10.176;2022-08-30T13:09:22;0.90;;;0.60;;
17201;SDS011;8717;53.588;10.176;2022-08-30T13:11:52;1.83;;;0.80;;
17201;SDS011;8717;53.588;10.176;2022-08-30T13:14:27;0.80;;;0.70;;
17201;SDS011;8717;53.588;10.176;2022-08-30T13:17:10;1.23;;;0.60;;
17201;SDS011;8717;53.588;10.176;2022-08-30T13:19:54;0.82;;;0.70;;
17201;SDS011;8717;53.588;10.176;2022-08-30T13:22:28;1.33;;;0.75;;
17201;SDS011;8717;53.588;10.176;2022-08-30T13:24:57;1.02;;;0.68;;
17201;SDS011;8717;53.588;10.176;2022-08-30T13:27:25;2.05;;;0.95;;
17201;SDS011;8717;53.588;10.176;2022-08-30T13:29:53;1.25;;;0.73;;
17201;SDS011;8717;53.588;10.176;2022-08-30T13:32:21;0.57;;;0.57;;
17201;SDS011;8717;53.588;10.176;2022-08-30T13:34:50;1.10;;;0.70;;
17201;SDS011;8717;53.588;10.176;2022-08-30T13:37:19;1.00;;;0.77;;
17201;SDS011;8717;53.588;10.176;2022-08-30T13:39:52;1.73;;;0.90;;
17201;SDS011;8717;53.588;10.176;2022-08-30T13:42:19;1.42;;;0.80;;
17201;SDS011;8717;53.588;10.176;2022-08-30T13:44:45;0.90;;;0.80;;
17201;SDS011;8717;53.588;10.176;2022-08-30T13:47:12;1.38;;;0.80;;
17201;SDS011;8717;53.588;10.176;2022-08-30T13:49:39;1.10;;;0.77;;
17201;SDS011;8717;53.588;10.176;2022-08-30T13:52:08;2.20;;;0.70;;
17201;SDS011;8717;53.588;10.176;2022-08-30T13:54:37;0.60;;;0.57;;
17201;SDS011;8717;53.588;10.176;2022-08-30T13:57:05;1.73;;;0.90;;
17201;SDS011;8717;53.588;10.176;2022-08-30T13:59:32;1.85;;;0.80;;
17201;SDS011;8717;53.588;10.176;2022-08-30T14:01:59;1.00;;;0.63;;
17201;SDS011;8717;53.588;10.176;2022-08-30T14:04:27;1.40;;;0.90;;
17201;SDS011;8717;53.588;10.176;2022-08-30T14:06:53;1.40;;;0.80;;
17201;SDS011;8717;53.588;10.176;2022-08-30T14:09:22;1.63;;;0.75;;
17201;SDS011;8717;53.588;10.176;2022-08-30T14:11:49;1.80;;;0.85;;
17201;SDS011;8717;53.588;10.176;2022-08-30T14:14:17;2.42;;;0.95;;
17201;SDS011;8717;53.588;10.176;2022-08-30T14:16:44;0.82;;;0.60;;
17201;SDS011;8717;53.588;10.176;2022-08-30T14:19:12;2.17;;;0.98;;
17201;SDS011;8717;53.588;10.176;2022-08-30T14:21:40;2.13;;;0.82;;
17201;SDS011;8717;53.588;10.176;2022-08-30T14:24:07;1.25;;;0.80;;
17201;SDS011;8717;53.588;10.176;2022-08-30T14:26:35;3.75;;;0.75;;
17201;SDS011;8717;53.588;10.176;2022-08-30T14:29:04;2.10;;;0.98;;
17201;SDS011;8717;53.588;10.176;2022-08-30T14:31:34;2.20;;;0.68;;
17201;SDS011;8717;53.588;10.176;2022-08-30T14:34:02;2.70;;;0.80;;
17201;SDS011;8717;53.588;10.176;2022-08-30T14:36:30;1.73;;;0.80;;
17201;SDS011;8717;53.588;10.176;2022-08-30T14:38:57;1.70;;;0.80;;
17201;SDS011;8717;53.588;10.176;2022-08-30T14:41:24;2.45;;;0.77;;
17201;SDS011;8717;53.588;10.176;2022-08-30T14:43:51;1.58;;;0.98;;
17201;SDS011;8717;53.588;10.176;2022-08-30T14:46:17;2.78;;;0.80;;
17201;SDS011;8717;53.588;10.176;2022-08-30T14:48:47;4.63;;;0.88;;
17201;SDS011;8717;53.588;10.176;2022-08-30T14:51:14;1.15;;;0.73;;
17201;SDS011;8717;53.588;10.176;2022-08-30T14:53:43;1.77;;;0.70;;
17201;SDS011;8717;53.588;10.176;2022-08-30T14:56:12;2.00;;;0.82;;
17201;SDS011;8717;53.588;10.176;2022-08-30T14:58:40;2.65;;;0.70;;
17201;SDS011;8717;53.588;10.176;2022-08-30T15:01:07;1.80;;;0.82;;
17201;SDS011;8717;53.588;10.176;2022-08-30T15:03:35;2.17;;;0.90;;
17201;SDS011;8717;53.588;10.176;2022-08-30T15:06:04;1.75;;;0.90;;
17201;SDS011;8717;53.588;10.176;2022-08-30T15:08:32;0.68;;;0.65;;
17201;SDS011;8717;53.588;10.176;2022-08-30T15:11:05;1.77;;;0.90;;
17201;SDS011;8717;53.588;10.176;2022-08-30T15:13:32;1.42;;;0.93;;
17201;SDS011;8717;53.588;10.176;2022-08-30T15:15:59;1.58;;;0.70;;
17201;SDS011;8717;53.588;10.176;2022-08-30T15:18:26;2.13;;;0.90;;
17201;SDS011;8717;53.588;10.176;2022-08-30T15:20:52;1.15;;;0.80;;
17201;SDS011;8717;53.588;10.176;2022-08-30T15:23:20;1.30;;;0.60;;
17201;SDS011;8717;53.588;10.176;2022-08-30T15:25:47;0.93;;;0.70;;
17201;SDS011;8717;53.588;10.176;2022-08-30T15:28:14;1.10;;;0.80;;